createdAt,value
2022-08-22T00:01:17.040Z,36.17
2022-08-22T00:02:42.589Z,35.22
2022-08-22T00:03:03.384Z,35.09
2022-08-22T00:03:07.584Z,34.03
2022-08-22T00:03:49.551Z,36.01
2022-08-22T00:06:20.494Z,36.14
2022-08-22T00:08:50.912Z,35.99
2022-08-22T00:11:28.621Z,35.92
2022-08-22T00:14:01.589Z,36.09
2022-08-22T00:16:32.344Z,35.45
2022-08-22T00:19:02.489Z,35.90
2022-08-22T00:21:32.988Z,35.67
2022-08-22T00:24:03.392Z,35.71
2022-08-22T00:26:44.642Z,35.74
2022-08-22T00:29:18.011Z,35.50
2022-08-22T00:31:56.879Z,35.37
2022-08-22T00:34:34.679Z,35.36
2022-08-22T00:37:06.133Z,35.70
2022-08-22T00:39:34.601Z,35.69
2022-08-22T00:42:29.535Z,36.05
2022-08-22T00:45:17.803Z,35.84
2022-08-22T00:48:05.880Z,35.76
2022-08-22T00:50:51.898Z,36.25
2022-08-22T00:53:22.043Z,35.90
2022-08-22T00:56:06.083Z,35.80
2022-08-22T00:58:33.465Z,35.96
2022-08-22T01:01:07.029Z,36.46
2022-08-22T01:03:50.444Z,36.12
2022-08-22T01:06:29.707Z,36.35
2022-08-22T01:09:00.017Z,36.66
2022-08-22T01:11:53.273Z,36.41
2022-08-22T01:14:34.666Z,36.79
2022-08-22T01:17:21.520Z,36.62
2022-08-22T01:19:49.086Z,36.36
2022-08-22T01:22:22.507Z,36.14
2022-08-22T01:25:18.435Z,36.50
2022-08-22T01:28:09.969Z,36.46
2022-08-22T01:31:00.714Z,36.65
2022-08-22T01:33:46.943Z,36.49
2022-08-22T01:36:33.010Z,36.68
2022-08-22T01:39:03.281Z,37.22
2022-08-22T01:41:30.621Z,37.02
2022-08-22T01:44:03.429Z,36.78
2022-08-22T01:46:37.300Z,37.02
2022-08-22T01:49:12.873Z,36.93
2022-08-22T01:51:40.147Z,37.40
2022-08-22T01:54:12.792Z,37.09
2022-08-22T01:56:44.839Z,36.93
2022-08-22T01:59:15.215Z,36.94
2022-08-22T02:01:57.073Z,37.27
2022-08-22T02:04:49.453Z,37.41
2022-08-22T02:07:38.960Z,37.15
2022-08-22T02:10:06.459Z,37.05
2022-08-22T02:12:52.232Z,36.99
2022-08-22T02:15:24.152Z,37.27
2022-08-22T02:18:01.106Z,36.78
2022-08-22T02:20:31.815Z,37.32
2022-08-22T02:23:08.273Z,36.97
2022-08-22T02:25:48.795Z,36.87
2022-08-22T02:28:21.020Z,36.99
2022-08-22T02:31:00.763Z,36.64
2022-08-22T02:33:38.659Z,36.80
2022-08-22T02:36:26.317Z,36.82
2022-08-22T02:39:21.184Z,36.28
2022-08-22T02:41:57.344Z,36.75
2022-08-22T02:44:35.183Z,36.72
2022-08-22T02:47:28.261Z,36.53
2022-08-22T02:50:03.266Z,36.17
2022-08-22T02:52:32.232Z,36.32
2022-08-22T02:55:18.541Z,36.59
2022-08-22T02:57:53.456Z,36.59
2022-08-22T03:00:29.638Z,36.63
2022-08-22T03:02:59.513Z,36.89
2022-08-22T03:05:36.045Z,36.26
2022-08-22T03:08:08.980Z,36.60
2022-08-22T03:10:39.516Z,36.74
2022-08-22T03:13:09.591Z,36.64
2022-08-22T03:15:48.598Z,36.70
2022-08-22T03:18:40.579Z,36.70
2022-08-22T03:21:16.707Z,36.63
2022-08-22T03:23:54.577Z,36.35
2022-08-22T03:26:24.576Z,36.30
2022-08-22T03:28:59.873Z,36.75
2022-08-22T03:31:28.951Z,36.46
2022-08-22T03:34:27.141Z,37.00
2022-08-22T03:37:17.662Z,36.69
2022-08-22T03:39:49.752Z,36.47
2022-08-22T03:42:18.300Z,36.93
2022-08-22T03:44:51.719Z,36.52
2022-08-22T03:47:38.268Z,36.74
2022-08-22T03:50:14.872Z,36.12
2022-08-22T03:53:18.562Z,36.42
2022-08-22T03:56:05.020Z,36.73
2022-08-22T03:58:52.255Z,36.76
2022-08-22T04:01:30.057Z,36.44
2022-08-22T04:04:08.704Z,36.60
2022-08-22T04:06:57.811Z,36.37
2022-08-22T04:09:29.108Z,36.27
2022-08-22T04:12:13.410Z,36.56
2022-08-22T04:14:53.914Z,36.75
2022-08-22T04:17:21.179Z,37.20
2022-08-22T04:20:07.009Z,37.15
2022-08-22T04:22:52.979Z,36.80
2022-08-22T04:25:23.586Z,36.91
2022-08-22T04:27:50.923Z,36.92
2022-08-22T04:30:21.116Z,36.69
2022-08-22T04:33:06.645Z,36.50
2022-08-22T04:35:54.191Z,36.92
2022-08-22T04:38:42.385Z,36.82
2022-08-22T04:41:14.102Z,36.82
2022-08-22T04:43:47.047Z,36.74
2022-08-22T04:46:24.131Z,37.10
2022-08-22T04:49:13.595Z,36.74
2022-08-22T04:51:46.735Z,36.64
2022-08-22T04:54:23.923Z,36.91
2022-08-22T04:56:57.903Z,37.18
2022-08-22T04:59:25.670Z,37.15
2022-08-22T05:01:56.754Z,36.89
2022-08-22T05:04:27.239Z,37.07
2022-08-22T05:06:58.616Z,36.82
2022-08-22T05:09:30.241Z,36.58
2022-08-22T05:12:00.829Z,37.09
2022-08-22T05:14:33.307Z,37.03
2022-08-22T05:17:02.455Z,36.71
2022-08-22T05:19:36.541Z,36.83
2022-08-22T05:22:13.480Z,36.95
2022-08-22T05:24:44.234Z,37.00
2022-08-22T05:27:17.737Z,36.37
2022-08-22T05:29:46.909Z,36.79
2022-08-22T05:32:29.236Z,37.00
2022-08-22T05:34:59.783Z,37.18
2022-08-22T05:37:43.265Z,36.60
2022-08-22T05:40:24.769Z,36.87
2022-08-22T05:42:53.578Z,36.47
2022-08-22T05:45:21.477Z,36.76
2022-08-22T05:47:55.656Z,36.04
2022-08-22T05:50:35.106Z,35.60
2022-08-22T05:53:06.661Z,35.86
2022-08-22T05:55:43.444Z,35.80
2022-08-22T05:58:11.037Z,36.65
2022-08-22T06:00:40.801Z,36.54
2022-08-22T06:03:24.447Z,36.38
2022-08-22T06:05:53.471Z,36.01
2022-08-22T06:08:24.604Z,35.47
2022-08-22T06:10:57.088Z,35.68
2022-08-22T06:13:35.073Z,35.75
2022-08-22T06:16:09.602Z,35.76
2022-08-22T06:18:40.549Z,35.33
2022-08-22T06:21:11.776Z,36.20
2022-08-22T06:23:42.634Z,36.08
2022-08-22T06:26:20.909Z,36.18
2022-08-22T06:28:54.527Z,35.90
2022-08-22T06:31:44.628Z,35.66
2022-08-22T06:34:23.194Z,35.43
2022-08-22T06:36:51.545Z,36.08
2022-08-22T06:39:27.743Z,36.38
2022-08-22T06:41:59.388Z,36.10
2022-08-22T06:44:46.954Z,36.29
2022-08-22T06:47:20.937Z,36.26
2022-08-22T06:49:50.037Z,35.77
2022-08-22T06:52:23.438Z,35.33
2022-08-22T06:54:54.459Z,35.37
2022-08-22T06:57:26.185Z,35.51
2022-08-22T06:59:54.883Z,35.58
2022-08-22T07:02:26.914Z,34.91
2022-08-22T07:04:54.788Z,35.55
2022-08-22T07:07:24.610Z,34.92
2022-08-22T07:09:55.647Z,35.34
2022-08-22T07:12:28.816Z,35.59
2022-08-22T07:15:01.964Z,35.56
2022-08-22T07:17:31.103Z,34.93
2022-08-22T07:20:18.224Z,34.99
2022-08-22T07:22:54.172Z,34.44
2022-08-22T07:25:24.436Z,34.39
2022-08-22T07:28:15.857Z,34.25
2022-08-22T07:30:43.695Z,33.23
2022-08-22T07:33:40.219Z,33.14
2022-08-22T07:36:23.111Z,33.29
2022-08-22T07:39:04.156Z,32.54
2022-08-22T07:41:54.961Z,32.67
2022-08-22T07:44:24.295Z,32.75
2022-08-22T07:46:58.221Z,32.76
2022-08-22T07:49:37.035Z,32.53
2022-08-22T07:52:08.198Z,32.65
2022-08-22T07:54:37.496Z,32.34
2022-08-22T07:57:08.573Z,32.53
2022-08-22T07:59:37.543Z,32.04
2022-08-22T08:02:08.224Z,32.67
2022-08-22T08:04:40.246Z,32.81
2022-08-22T08:07:10.135Z,32.15
2022-08-22T08:09:47.036Z,32.47
2022-08-22T08:12:15.481Z,32.79
2022-08-22T08:14:45.519Z,32.68
2022-08-22T08:17:32.256Z,31.99
2022-08-22T08:20:03.093Z,32.41
2022-08-22T08:22:31.392Z,32.19
2022-08-22T08:24:59.092Z,32.67
2022-08-22T08:27:50.456Z,32.75
2022-08-22T08:30:36.876Z,32.46
2022-08-22T08:33:25.611Z,32.59
2022-08-22T08:36:02.768Z,32.60
2022-08-22T08:38:45.788Z,33.01
2022-08-22T08:41:26.414Z,32.54
2022-08-22T08:44:27.536Z,32.38
2022-08-22T08:47:13.932Z,33.24
2022-08-22T08:50:05.976Z,32.80
2022-08-22T08:52:39.717Z,32.15
2022-08-22T08:55:24.693Z,32.61
2022-08-22T08:58:06.840Z,32.96
2022-08-22T09:00:48.943Z,32.38
2022-08-22T09:03:30.566Z,32.85
2022-08-22T09:06:00.992Z,32.88
2022-08-22T09:08:37.961Z,32.46
2022-08-22T09:11:09.789Z,32.95
2022-08-22T09:13:48.519Z,33.12
2022-08-22T09:16:35.360Z,32.85
2022-08-22T09:19:06.552Z,33.31
2022-08-22T09:21:52.597Z,33.08
2022-08-22T09:24:23.284Z,33.20
2022-08-22T09:27:01.994Z,33.62
2022-08-22T09:29:29.235Z,33.61
2022-08-22T09:32:06.752Z,33.34
2022-08-22T09:34:49.628Z,33.27
2022-08-22T09:37:31.923Z,33.39
2022-08-22T09:40:05.197Z,33.65
2022-08-22T09:42:55.437Z,34.03
2022-08-22T09:45:22.910Z,33.88
2022-08-22T09:47:50.145Z,33.86
2022-08-22T09:50:17.728Z,33.77
2022-08-22T09:52:48.487Z,33.84
2022-08-22T09:55:35.337Z,33.83
2022-08-22T09:58:06.887Z,33.74
2022-08-22T10:00:47.277Z,33.84
2022-08-22T10:03:41.684Z,33.72
2022-08-22T10:06:15.305Z,33.86
2022-08-22T10:08:59.307Z,34.15
2022-08-22T10:11:29.046Z,34.14
2022-08-22T10:14:04.924Z,33.79
2022-08-22T10:16:39.608Z,34.03
2022-08-22T10:19:16.697Z,34.12
2022-08-22T10:21:48.513Z,34.32
2022-08-22T10:24:43.855Z,34.26
2022-08-22T10:27:19.713Z,34.43
2022-08-22T10:30:03.994Z,34.56
2022-08-22T10:32:52.129Z,34.31
2022-08-22T10:35:34.016Z,34.37
2022-08-22T10:38:21.855Z,34.75
2022-08-22T10:40:53.183Z,34.02
2022-08-22T10:43:29.644Z,34.16
2022-08-22T10:46:07.109Z,34.12
2022-08-22T10:49:00.662Z,33.84
2022-08-22T10:51:47.694Z,34.02
2022-08-22T10:54:24.564Z,33.93
2022-08-22T10:57:03.607Z,33.94
2022-08-22T10:59:40.491Z,34.18
2022-08-22T11:02:08.196Z,34.29
2022-08-22T11:04:35.491Z,34.35
2022-08-22T11:07:35.503Z,33.04
2022-08-22T11:10:05.422Z,32.57
2022-08-22T11:12:41.564Z,32.33
2022-08-22T11:15:34.731Z,33.04
2022-08-22T11:18:02.526Z,32.70
2022-08-22T11:20:30.482Z,33.36
2022-08-22T11:23:06.778Z,33.14
2022-08-22T11:25:43.671Z,34.00
2022-08-22T11:28:33.518Z,33.96
2022-08-22T11:31:22.568Z,33.36
2022-08-22T11:33:59.762Z,33.08
2022-08-22T11:36:31.480Z,33.04
2022-08-22T11:38:59.021Z,32.67
2022-08-22T11:41:33.157Z,33.04
2022-08-22T11:44:03.499Z,33.27
2022-08-22T11:46:33.831Z,32.50
2022-08-22T11:49:10.919Z,32.92
2022-08-22T11:51:47.221Z,32.29
2022-08-22T11:54:31.343Z,32.34
2022-08-22T11:57:07.892Z,31.77
2022-08-22T11:59:53.999Z,32.30
2022-08-22T12:02:41.920Z,32.35
2022-08-22T12:05:19.654Z,32.40
2022-08-22T12:08:07.576Z,32.34
2022-08-22T12:10:38.237Z,31.97
2022-08-22T12:13:08.164Z,32.01
2022-08-22T12:15:54.009Z,32.06
2022-08-22T12:18:21.753Z,31.64
2022-08-22T12:20:59.494Z,32.12
2022-08-22T12:23:48.891Z,31.40
2022-08-22T12:26:22.079Z,32.16
2022-08-22T12:29:15.401Z,31.79
2022-08-22T12:31:56.663Z,32.01
2022-08-22T12:34:31.467Z,31.68
2022-08-22T12:37:15.811Z,31.77
2022-08-22T12:39:47.890Z,32.03
2022-08-22T12:42:15.668Z,31.91
2022-08-22T12:44:49.385Z,31.92
2022-08-22T12:47:22.737Z,32.37
2022-08-22T12:50:03.420Z,31.77
2022-08-22T12:52:45.894Z,32.14
2022-08-22T12:55:21.060Z,32.16
2022-08-22T12:57:53.983Z,32.10
2022-08-22T13:00:41.765Z,31.89
2022-08-22T13:03:24.651Z,32.17
2022-08-22T13:06:00.590Z,32.66
2022-08-22T13:08:37.256Z,31.97
2022-08-22T13:11:15.177Z,31.94
2022-08-22T13:13:56.670Z,32.56
2022-08-22T13:16:26.328Z,32.44
2022-08-22T13:18:55.594Z,31.97
2022-08-22T13:21:25.492Z,32.32
2022-08-22T13:23:57.507Z,32.13
2022-08-22T13:26:32.158Z,32.48
2022-08-22T13:32:00.395Z,33.23
2022-08-22T13:34:27.844Z,32.21
2022-08-22T13:36:58.561Z,32.09
2022-08-22T13:39:35.773Z,31.79
2022-08-22T13:42:07.581Z,31.38
2022-08-22T13:44:44.591Z,32.25
2022-08-22T13:47:15.712Z,32.30
2022-08-22T13:49:45.527Z,32.12
2022-08-22T13:52:29.802Z,31.78
2022-08-22T13:55:12.448Z,31.87
2022-08-22T13:57:43.680Z,31.57
2022-08-22T14:00:31.500Z,31.98
2022-08-22T14:03:05.415Z,31.85
2022-08-22T14:05:41.736Z,31.76
2022-08-22T14:08:18.557Z,31.69
2022-08-22T14:10:50.555Z,31.52
2022-08-22T14:13:32.029Z,31.56
2022-08-22T14:16:04.674Z,31.75
2022-08-22T14:18:36.547Z,31.82
2022-08-22T14:21:19.052Z,31.87
2022-08-22T14:23:50.414Z,31.96
2022-08-22T14:26:32.996Z,32.16
2022-08-22T14:29:24.556Z,32.74
2022-08-22T14:32:08.835Z,31.98
2022-08-22T14:34:39.169Z,32.33
2022-08-22T14:37:13.201Z,32.73
2022-08-22T14:39:53.462Z,32.35
2022-08-22T14:42:23.075Z,32.11
2022-08-22T14:44:50.304Z,32.57
2022-08-22T14:47:55.610Z,32.66
2022-08-22T14:50:34.823Z,32.87
2022-08-22T14:53:10.353Z,32.56
2022-08-22T14:55:39.639Z,32.51
2022-08-22T14:58:14.648Z,32.31
2022-08-22T15:00:44.909Z,32.27
2022-08-22T15:03:23.822Z,32.47
2022-08-22T15:05:54.134Z,32.09
2022-08-22T15:08:42.371Z,31.67
2022-08-22T15:11:23.012Z,32.06
2022-08-22T15:13:53.651Z,32.00
2022-08-22T15:16:23.379Z,32.25
2022-08-22T15:18:51.527Z,31.66
2022-08-22T15:21:24.377Z,31.72
2022-08-22T15:23:54.093Z,31.86
2022-08-22T15:26:38.607Z,32.15
2022-08-22T15:29:17.769Z,32.37
2022-08-22T15:31:51.208Z,32.05
2022-08-22T15:34:38.949Z,32.06
2022-08-22T15:37:18.735Z,32.82
2022-08-22T15:39:58.180Z,32.37
2022-08-22T15:42:27.282Z,32.50
2022-08-22T15:44:55.616Z,32.44
2022-08-22T15:47:38.459Z,32.80
2022-08-22T15:50:14.701Z,32.78
2022-08-22T15:53:06.593Z,32.92
2022-08-22T15:55:35.540Z,32.38
2022-08-22T15:58:13.033Z,32.13
2022-08-22T16:01:18.933Z,32.46
2022-08-22T16:04:02.729Z,32.16
2022-08-22T16:06:47.569Z,31.81
2022-08-22T16:09:35.291Z,32.00
2022-08-22T16:12:05.889Z,32.43
2022-08-22T16:14:33.283Z,32.40
2022-08-22T16:17:07.160Z,32.16
2022-08-22T16:19:35.089Z,31.59
2022-08-22T16:22:04.133Z,31.84
2022-08-22T16:24:32.214Z,31.49
2022-08-22T16:27:15.086Z,31.98
2022-08-22T16:29:42.701Z,31.53
2022-08-22T16:32:11.485Z,31.25
2022-08-22T16:34:39.005Z,31.99
2022-08-22T16:37:09.113Z,32.09
2022-08-22T16:39:42.526Z,31.42
2022-08-22T16:42:12.983Z,31.15
2022-08-22T16:44:46.106Z,31.95
2022-08-22T16:47:16.395Z,31.86
2022-08-22T16:50:03.943Z,31.89
2022-08-22T16:52:33.334Z,31.80
2022-08-22T16:55:26.629Z,31.86
2022-08-22T16:58:07.017Z,31.61
2022-08-22T17:00:57.726Z,31.53
2022-08-22T17:03:25.525Z,31.64
2022-08-22T17:06:04.683Z,31.87
2022-08-22T17:08:50.299Z,31.72
2022-08-22T17:11:20.661Z,32.01
2022-08-22T17:14:08.793Z,32.54
2022-08-22T17:16:50.832Z,32.08
2022-08-22T17:19:38.161Z,32.17
2022-08-22T17:22:22.629Z,32.28
2022-08-22T17:24:55.360Z,32.19
2022-08-22T17:27:32.015Z,32.55
2022-08-22T17:30:19.598Z,32.04
2022-08-22T17:32:46.967Z,31.89
2022-08-22T17:35:25.824Z,32.12
2022-08-22T17:37:53.097Z,32.37
2022-08-22T17:40:26.705Z,32.09
2022-08-22T17:43:04.830Z,32.12
2022-08-22T17:45:32.095Z,31.82
2022-08-22T17:48:07.121Z,32.34
2022-08-22T17:50:40.235Z,32.07
2022-08-22T17:53:26.127Z,32.32
2022-08-22T17:56:05.931Z,31.30
2022-08-22T17:58:44.054Z,31.90
2022-08-22T18:01:14.923Z,31.81
2022-08-22T18:03:58.829Z,32.28
2022-08-22T18:06:29.303Z,32.72
2022-08-22T18:09:15.412Z,32.20
2022-08-22T18:11:50.195Z,32.09
2022-08-22T18:14:40.682Z,32.37
2022-08-22T18:17:19.612Z,32.04
2022-08-22T18:19:56.911Z,32.19
2022-08-22T18:22:30.306Z,32.14
2022-08-22T18:25:01.439Z,31.96
2022-08-22T18:27:37.172Z,31.47
2022-08-22T18:30:04.449Z,31.31
2022-08-22T18:32:31.725Z,31.35
2022-08-22T18:35:06.661Z,31.10
2022-08-22T18:37:35.330Z,30.54
2022-08-22T18:40:06.943Z,30.31
2022-08-22T18:42:37.437Z,30.23
2022-08-22T18:45:04.872Z,30.59
2022-08-22T18:47:33.847Z,30.35
2022-08-22T18:50:03.151Z,30.16
2022-08-22T18:52:35.120Z,30.04
2022-08-22T18:55:16.736Z,30.17
2022-08-22T18:57:44.763Z,30.00
2022-08-22T19:00:17.103Z,29.97
2022-08-22T19:02:56.005Z,30.47
2022-08-22T19:05:39.051Z,30.32
2022-08-22T19:08:21.951Z,30.31
2022-08-22T19:11:08.051Z,30.55
2022-08-22T19:13:44.244Z,30.82
2022-08-22T19:16:32.895Z,30.45
2022-08-22T19:19:00.235Z,30.44
2022-08-22T19:21:46.018Z,30.63
2022-08-22T19:24:19.388Z,30.19
2022-08-22T19:26:48.396Z,30.25
2022-08-22T19:29:16.138Z,30.36
2022-08-22T19:31:46.627Z,30.79
2022-08-22T19:34:13.999Z,30.07
2022-08-22T19:36:41.905Z,30.33
2022-08-22T19:39:11.067Z,30.84
2022-08-22T19:41:40.125Z,30.91
2022-08-22T19:44:12.320Z,30.98
2022-08-22T19:46:42.003Z,30.96
2022-08-22T19:49:24.219Z,31.06
2022-08-22T19:52:12.105Z,30.89
2022-08-22T19:54:53.214Z,30.86
2022-08-22T19:57:40.747Z,31.18
2022-08-22T20:00:11.254Z,31.36
2022-08-22T20:02:44.680Z,31.16
2022-08-22T20:05:30.856Z,30.92
2022-08-22T20:07:58.615Z,31.36
2022-08-22T20:10:30.666Z,31.65
2022-08-22T20:13:10.438Z,31.77
2022-08-22T20:15:56.643Z,31.45
2022-08-22T20:19:00.205Z,30.71
2022-08-22T20:21:39.307Z,31.11
2022-08-22T20:24:08.131Z,31.59
2022-08-22T20:26:47.479Z,31.36
2022-08-22T20:29:32.578Z,31.64
2022-08-22T20:32:00.402Z,31.36
2022-08-22T20:34:29.404Z,32.05
2022-08-22T20:37:23.339Z,32.00
2022-08-22T20:39:58.824Z,31.85
2022-08-22T20:42:28.760Z,32.00
2022-08-22T20:44:56.347Z,32.06
2022-08-22T20:47:24.961Z,32.16
2022-08-22T20:50:07.997Z,31.81
2022-08-22T20:52:38.127Z,32.05
2022-08-22T20:55:08.407Z,32.13
2022-08-22T20:57:43.753Z,31.94
2022-08-22T21:00:13.514Z,31.99
2022-08-22T21:02:46.251Z,31.89
2022-08-22T21:05:13.567Z,31.98
2022-08-22T21:07:45.733Z,31.90
2022-08-22T21:10:39.766Z,31.94
2022-08-22T21:13:17.382Z,32.30
2022-08-22T21:15:50.071Z,32.07
2022-08-22T21:18:28.743Z,31.96
2022-08-22T21:21:05.237Z,31.95
2022-08-22T21:23:40.665Z,32.38
2022-08-22T21:26:12.596Z,32.30
2022-08-22T21:28:41.312Z,32.20
2022-08-22T21:31:14.122Z,32.62
2022-08-22T21:33:43.748Z,32.57
2022-08-22T21:36:12.533Z,32.25
2022-08-22T21:38:40.279Z,32.06
2022-08-22T21:41:07.675Z,32.16
2022-08-22T21:43:40.264Z,32.12
2022-08-22T21:46:24.018Z,32.10
2022-08-22T21:49:04.770Z,31.99
2022-08-22T21:51:32.241Z,31.82
2022-08-22T21:54:19.121Z,32.39
2022-08-22T21:56:46.753Z,31.83
2022-08-22T21:59:50.789Z,32.20
2022-08-22T22:02:29.469Z,31.78
2022-08-22T22:04:59.240Z,32.47
2022-08-22T22:07:26.935Z,32.07
2022-08-22T22:09:55.197Z,32.50
2022-08-22T22:12:23.516Z,33.02
2022-08-22T22:14:51.003Z,32.51
2022-08-22T22:17:18.964Z,32.46
2022-08-22T22:19:46.544Z,32.54
2022-08-22T22:22:14.224Z,32.33
2022-08-22T22:24:41.495Z,32.32
2022-08-22T22:27:11.707Z,32.79
2022-08-22T22:29:41.182Z,32.67
2022-08-22T22:32:09.471Z,32.64
2022-08-22T22:34:39.127Z,32.73
2022-08-22T22:37:08.363Z,32.81
2022-08-22T22:39:36.264Z,32.62
2022-08-22T22:42:03.616Z,32.47
2022-08-22T22:44:31.011Z,32.91
2022-08-22T22:46:59.305Z,33.15
2022-08-22T22:49:26.588Z,33.05
2022-08-22T22:51:53.832Z,33.05
2022-08-22T22:54:21.290Z,33.19
2022-08-22T22:56:54.739Z,33.08
2022-08-22T22:59:24.840Z,32.64
2022-08-22T23:02:19.147Z,32.73
2022-08-22T23:04:50.332Z,32.86
2022-08-22T23:07:18.536Z,32.75
2022-08-22T23:09:45.926Z,32.84
2022-08-22T23:12:14.172Z,33.10
2022-08-22T23:14:41.467Z,32.96
2022-08-22T23:17:08.967Z,33.05
2022-08-22T23:19:38.883Z,33.20
2022-08-22T23:22:07.437Z,33.08
2022-08-22T23:24:35.412Z,33.59
2022-08-22T23:27:03.284Z,33.55
2022-08-22T23:29:30.701Z,33.59
2022-08-22T23:31:59.695Z,33.88
2022-08-22T23:34:29.882Z,33.45
2022-08-22T23:36:58.970Z,34.08
2022-08-22T23:39:27.441Z,33.98
2022-08-22T23:41:55.750Z,33.59
2022-08-22T23:44:24.840Z,33.44
2022-08-22T23:46:52.476Z,33.60
2022-08-22T23:49:19.788Z,33.47
2022-08-22T23:51:48.379Z,33.18
2022-08-22T23:54:16.504Z,33.38
2022-08-22T23:56:45.545Z,33.66
2022-08-22T23:59:14.855Z,34.33
